createdAt,value
2018-09-15T00:00:07.098Z,0
2018-09-15T00:01:07.676Z,0
2018-09-15T00:02:08.249Z,0
2018-09-15T00:03:08.824Z,0
2018-09-15T00:04:09.397Z,0
2018-09-15T00:05:09.971Z,0
2018-09-15T00:06:10.545Z,0
2018-09-15T00:07:11.121Z,0
2018-09-15T00:08:11.694Z,0
2018-09-15T00:09:12.270Z,0
2018-09-15T00:10:12.856Z,0
2018-09-15T00:11:13.429Z,0
2018-09-15T00:12:14.002Z,0
2018-09-15T00:13:14.577Z,0
2018-09-15T00:14:15.163Z,0
2018-09-15T00:15:15.736Z,0
2018-09-15T00:16:16.323Z,0
2018-09-15T00:17:16.899Z,0
2018-09-15T00:18:17.475Z,0
2018-09-15T00:19:18.057Z,0
2018-09-15T00:20:18.622Z,0
2018-09-15T00:21:19.209Z,0
2018-09-15T00:22:19.783Z,0
2018-09-15T00:23:20.358Z,0
2018-09-15T00:24:20.930Z,0
2018-09-15T00:25:21.507Z,0
2018-09-15T00:26:22.083Z,0
2018-09-15T00:27:22.658Z,0
2018-09-15T00:28:23.234Z,0
2018-09-15T00:29:23.811Z,0
2018-09-15T00:30:24.390Z,0
2018-09-15T00:31:24.962Z,0
2018-09-15T00:32:25.542Z,0
2018-09-15T00:33:26.116Z,0
2018-09-15T00:34:26.695Z,0
2018-09-15T00:35:27.267Z,0
2018-09-15T00:36:27.843Z,0
2018-09-15T00:37:28.420Z,0
2018-09-15T00:38:28.993Z,0
2018-09-15T00:39:29.571Z,0
2018-09-15T00:40:30.146Z,0
2018-09-15T00:41:30.721Z,0
2018-09-15T00:42:31.294Z,0
2018-09-15T00:43:31.903Z,0
2018-09-15T00:44:32.459Z,0
2018-09-15T00:45:33.036Z,0
2018-09-15T00:46:33.609Z,0
2018-09-15T00:47:34.186Z,0
2018-09-15T00:48:34.771Z,0
2018-09-15T00:49:35.346Z,0
2018-09-15T00:50:35.918Z,0
2018-09-15T00:51:36.493Z,0
2018-09-15T00:52:37.067Z,0
2018-09-15T00:53:37.642Z,0
2018-09-15T00:54:38.216Z,0
2018-09-15T00:55:38.790Z,0
2018-09-15T00:56:39.367Z,0
2018-09-15T00:57:39.938Z,0
2018-09-15T00:58:40.514Z,0
2018-09-15T00:59:41.103Z,0
2018-09-15T01:00:41.676Z,0
2018-09-15T01:01:42.249Z,0
2018-09-15T01:02:42.825Z,0
2018-09-15T01:03:43.398Z,0
2018-09-15T01:04:43.987Z,0
2018-09-15T01:05:44.579Z,0
2018-09-15T01:06:45.151Z,0
2018-09-15T01:07:58.475Z,0
2018-09-15T01:08:59.051Z,0
2018-09-15T01:09:59.624Z,0
2018-09-15T01:11:00.212Z,0
2018-09-15T01:12:00.786Z,0
2018-09-15T01:13:01.359Z,0
2018-09-15T01:14:02.022Z,0
2018-09-15T01:15:02.515Z,0
2018-09-15T01:16:03.089Z,0
2018-09-15T01:17:03.670Z,0
2018-09-15T01:18:04.243Z,0
2018-09-15T01:19:04.816Z,0
2018-09-15T01:20:05.414Z,0
2018-09-15T01:21:05.977Z,0
2018-09-15T01:22:06.553Z,0
2018-09-15T01:23:07.128Z,0
2018-09-15T01:24:07.703Z,0
2018-09-15T01:25:08.278Z,0
2018-09-15T01:26:08.932Z,0
2018-09-15T01:27:09.433Z,0
2018-09-15T01:28:10.008Z,0
2018-09-15T01:29:10.583Z,0
2018-09-15T01:30:11.158Z,0
2018-09-15T01:31:11.732Z,0
2018-09-15T01:32:12.308Z,0
2018-09-15T01:33:12.882Z,0
2018-09-15T01:34:13.457Z,0
2018-09-15T01:35:14.033Z,0
2018-09-15T01:36:14.607Z,0
2018-09-15T01:37:15.181Z,0
2018-09-15T01:38:15.757Z,0
2018-09-15T01:39:16.331Z,0
2018-09-15T01:40:16.904Z,0
2018-09-15T01:41:17.476Z,0
2018-09-15T01:42:18.052Z,0
2018-09-15T01:43:18.631Z,0
2018-09-15T01:44:19.201Z,0
2018-09-15T01:45:19.802Z,0
2018-09-15T01:46:20.361Z,0
2018-09-15T01:47:20.934Z,0
2018-09-15T01:48:21.509Z,0
2018-09-15T01:49:22.087Z,0
2018-09-15T01:50:22.659Z,0
2018-09-15T01:51:23.233Z,0
2018-09-15T01:52:23.810Z,0
2018-09-15T01:53:24.383Z,0
2018-09-15T01:54:24.957Z,0
2018-09-15T01:55:25.546Z,0
2018-09-15T01:56:26.135Z,0
2018-09-15T01:57:26.727Z,0
2018-09-15T01:58:27.281Z,0
2018-09-15T01:59:27.861Z,0
2018-09-15T02:00:28.441Z,0
2018-09-15T02:01:29.016Z,0
2018-09-15T02:02:29.591Z,0
2018-09-15T02:03:30.165Z,0
2018-09-15T02:04:30.739Z,0
2018-09-15T02:05:31.312Z,0
2018-09-15T02:06:31.900Z,0
2018-09-15T02:07:32.475Z,0
2018-09-15T02:08:33.051Z,0
2018-09-15T02:09:33.624Z,0
2018-09-15T02:10:34.200Z,0
2018-09-15T02:11:34.771Z,0
2018-09-15T02:12:35.347Z,0
2018-09-15T02:13:35.922Z,0
2018-09-15T02:14:36.511Z,0
2018-09-15T02:15:37.100Z,0
2018-09-15T02:16:37.673Z,0
2018-09-15T02:17:38.252Z,0
2018-09-15T02:18:38.835Z,0
2018-09-15T02:19:39.408Z,0
2018-09-15T02:20:39.983Z,0
2018-09-15T02:21:40.559Z,0
2018-09-15T02:22:41.182Z,0
2018-09-15T02:23:41.714Z,0
2018-09-15T02:24:42.290Z,0
2018-09-15T02:25:42.863Z,0
2018-09-15T02:26:43.437Z,0
2018-09-15T02:27:44.013Z,0
2018-09-15T02:28:44.587Z,0
2018-09-15T02:29:45.158Z,0
2018-09-15T02:30:45.733Z,0
2018-09-15T02:31:46.305Z,0
2018-09-15T02:32:46.881Z,0
2018-09-15T02:33:47.456Z,0
2018-09-15T02:34:48.042Z,0
2018-09-15T02:35:48.617Z,0
2018-09-15T02:36:49.207Z,0
2018-09-15T02:37:49.779Z,0
2018-09-15T02:38:50.352Z,0
2018-09-15T02:39:50.928Z,0
2018-09-15T02:40:51.499Z,0
2018-09-15T02:41:52.075Z,0
2018-09-15T02:42:52.648Z,0
2018-09-15T02:43:53.223Z,0
2018-09-15T02:44:53.808Z,0
2018-09-15T02:45:54.382Z,0
2018-09-15T02:46:54.958Z,0
2018-09-15T02:47:55.531Z,0
2018-09-15T02:48:56.104Z,0
2018-09-15T02:49:56.692Z,0
2018-09-15T02:50:57.266Z,0
2018-09-15T02:51:57.841Z,0
2018-09-15T02:52:58.413Z,0
2018-09-15T02:53:58.994Z,0
2018-09-15T02:54:59.577Z,0
2018-09-15T02:56:00.165Z,0
2018-09-15T02:57:00.739Z,0
2018-09-15T02:58:01.314Z,0
2018-09-15T02:59:01.884Z,0
2018-09-15T03:00:02.458Z,0
2018-09-15T03:01:03.046Z,0
2018-09-15T03:02:03.625Z,0
2018-09-15T03:03:04.196Z,0
2018-09-15T03:04:04.771Z,0
2018-09-15T03:05:05.357Z,0
2018-09-15T03:06:05.948Z,0
2018-09-15T03:07:06.534Z,0
2018-09-15T03:08:07.108Z,0
2018-09-15T03:09:07.699Z,0
2018-09-15T03:10:08.287Z,0
2018-09-15T03:11:08.873Z,0
2018-09-15T03:12:09.462Z,0
2018-09-15T03:13:10.036Z,0
2018-09-15T03:14:10.610Z,0
2018-09-15T03:15:11.189Z,0
2018-09-15T03:16:11.770Z,0
2018-09-15T03:17:12.344Z,0
2018-09-15T03:18:12.916Z,0
2018-09-15T03:19:13.489Z,0
2018-09-15T03:20:14.061Z,0
2018-09-15T03:21:14.635Z,0
2018-09-15T03:22:15.210Z,0
2018-09-15T03:23:15.782Z,0
2018-09-15T03:24:16.359Z,0
2018-09-15T03:25:16.948Z,0
2018-09-15T03:26:17.534Z,0
2018-09-15T03:27:18.108Z,0
2018-09-15T03:28:18.680Z,0
2018-09-15T03:29:19.252Z,0
2018-09-15T03:30:19.844Z,0
2018-09-15T03:31:20.418Z,0
2018-09-15T03:32:20.990Z,0
2018-09-15T03:33:21.573Z,0
2018-09-15T03:34:22.152Z,0
2018-09-15T03:35:22.722Z,0
2018-09-15T03:36:23.296Z,0
2018-09-15T03:37:23.870Z,0
2018-09-15T03:38:24.443Z,0
2018-09-15T03:39:25.016Z,0
2018-09-15T03:40:25.592Z,0
2018-09-15T03:41:26.195Z,0
2018-09-15T03:42:26.739Z,0
2018-09-15T03:43:27.316Z,0
2018-09-15T03:44:27.903Z,0
2018-09-15T03:45:28.486Z,0
2018-09-15T03:46:29.064Z,0
2018-09-15T03:47:29.649Z,0
2018-09-15T03:48:30.224Z,0
2018-09-15T03:49:30.797Z,0
2018-09-15T03:50:31.370Z,0
2018-09-15T03:51:31.944Z,0
2018-09-15T03:52:32.517Z,0
2018-09-15T03:53:33.090Z,0
2018-09-15T03:54:33.676Z,0
2018-09-15T03:55:34.249Z,0
2018-09-15T03:56:34.824Z,0
2018-09-15T03:57:35.409Z,0
2018-09-15T03:58:35.984Z,0
2018-09-15T03:59:36.594Z,0
2018-09-15T04:00:37.142Z,0
2018-09-15T04:01:37.716Z,0
2018-09-15T04:02:38.305Z,0
2018-09-15T04:03:38.874Z,0
2018-09-15T04:04:39.460Z,0
2018-09-15T04:05:40.033Z,0
2018-09-15T04:06:40.606Z,0
2018-09-15T04:07:41.184Z,0
2018-09-15T04:08:41.755Z,0
2018-09-15T04:09:42.334Z,0
2018-09-15T04:10:42.900Z,0
2018-09-15T04:11:43.472Z,0
2018-09-15T04:12:44.063Z,0
2018-09-15T04:13:44.636Z,0
2018-09-15T04:14:45.208Z,0
2018-09-15T04:15:45.780Z,0
2018-09-15T04:16:46.354Z,0
2018-09-15T04:17:47.290Z,0
2018-09-15T04:18:47.862Z,0
2018-09-15T04:19:48.437Z,0
2018-09-15T04:20:49.022Z,0
2018-09-15T04:21:49.598Z,0
2018-09-15T04:22:50.169Z,0
2018-09-15T04:23:50.744Z,0
2018-09-15T04:24:51.315Z,0
2018-09-15T04:25:51.905Z,0
2018-09-15T04:26:52.474Z,0
2018-09-15T04:27:53.046Z,0
2018-09-15T04:28:53.632Z,0
2018-09-15T04:29:54.206Z,0
2018-09-15T04:30:54.794Z,0
2018-09-15T04:31:55.367Z,0
2018-09-15T04:32:55.953Z,0
2018-09-15T04:33:56.528Z,0
2018-09-15T04:34:57.098Z,0
2018-09-15T04:35:57.669Z,0
2018-09-15T04:36:58.256Z,0
2018-09-15T04:37:58.827Z,0
2018-09-15T04:38:59.401Z,0
2018-09-15T04:39:59.976Z,0
2018-09-15T04:41:00.552Z,0
2018-09-15T04:42:01.140Z,0
2018-09-15T04:43:01.707Z,0
2018-09-15T04:44:02.280Z,0
2018-09-15T04:45:02.855Z,0
2018-09-15T04:46:03.428Z,0
2018-09-15T04:47:03.998Z,4
2018-09-15T04:48:04.573Z,0
2018-09-15T04:49:05.147Z,4
2018-09-15T04:50:05.732Z,0
2018-09-15T04:51:06.304Z,0
2018-09-15T04:52:06.890Z,4
2018-09-15T04:53:07.476Z,4
2018-09-15T04:54:08.064Z,0
2018-09-15T04:55:08.636Z,4
2018-09-15T04:56:09.208Z,4
2018-09-15T04:57:09.781Z,4
2018-09-15T04:58:10.355Z,4
2018-09-15T04:59:10.928Z,4
2018-09-15T05:00:11.502Z,12
2018-09-15T05:01:12.090Z,12
2018-09-15T05:02:12.680Z,12
2018-09-15T05:03:13.266Z,16
2018-09-15T05:04:13.841Z,16
2018-09-15T05:05:14.416Z,16
2018-09-15T05:06:14.989Z,16
2018-09-15T05:07:15.565Z,16
2018-09-15T05:08:16.139Z,20
2018-09-15T05:09:16.715Z,24
2018-09-15T05:10:17.298Z,24
2018-09-15T05:11:17.872Z,28
2018-09-15T05:12:18.460Z,28
2018-09-15T05:13:19.037Z,28
2018-09-15T05:14:19.611Z,32
2018-09-15T05:15:20.202Z,36
2018-09-15T05:16:20.774Z,36
2018-09-15T05:17:21.347Z,40
2018-09-15T05:18:21.924Z,44
2018-09-15T05:19:22.497Z,48
2018-09-15T05:20:23.072Z,52
2018-09-15T05:21:23.645Z,56
2018-09-15T05:22:24.220Z,56
2018-09-15T05:23:24.795Z,60
2018-09-15T05:24:25.402Z,64
2018-09-15T05:25:25.942Z,68
2018-09-15T05:26:26.518Z,72
2018-09-15T05:27:27.091Z,76
2018-09-15T05:28:27.669Z,80
2018-09-15T05:29:28.253Z,84
2018-09-15T05:30:28.829Z,88
2018-09-15T05:31:29.457Z,92
2018-09-15T05:32:29.976Z,92
2018-09-15T05:33:30.551Z,100
2018-09-15T05:34:31.142Z,100
2018-09-15T05:35:31.718Z,104
2018-09-15T05:36:32.295Z,108
2018-09-15T05:37:32.868Z,108
2018-09-15T05:38:33.448Z,112
2018-09-15T05:39:34.019Z,116
2018-09-15T05:40:34.607Z,120
2018-09-15T05:41:35.181Z,124
2018-09-15T05:42:35.759Z,128
2018-09-15T05:43:36.897Z,136
2018-09-15T05:44:37.486Z,136
2018-09-15T05:45:38.074Z,140
2018-09-15T05:46:38.649Z,144
2018-09-15T05:47:39.224Z,148
2018-09-15T05:48:39.812Z,148
2018-09-15T05:49:40.420Z,156
2018-09-15T05:50:40.984Z,160
2018-09-15T05:51:41.563Z,164
2018-09-15T05:52:42.136Z,164
2018-09-15T05:53:42.760Z,168
2018-09-15T05:54:43.336Z,176
2018-09-15T05:55:43.911Z,176
2018-09-15T05:56:44.487Z,180
2018-09-15T05:57:45.064Z,184
2018-09-15T05:58:45.654Z,184
2018-09-15T05:59:46.228Z,188
2018-09-15T06:00:46.804Z,196
2018-09-15T06:01:47.489Z,196
2018-09-15T06:02:47.954Z,200
2018-09-15T06:03:48.531Z,204
2018-09-15T06:04:49.109Z,208
2018-09-15T06:05:49.682Z,212
2018-09-15T06:06:50.299Z,212
2018-09-15T06:07:50.924Z,220
2018-09-15T06:08:51.410Z,220
2018-09-15T06:09:51.987Z,228
2018-09-15T06:10:52.563Z,228
2018-09-15T06:11:53.152Z,232
2018-09-15T06:12:53.728Z,240
2018-09-15T06:13:54.557Z,236
2018-09-15T06:14:55.133Z,240
2018-09-15T06:15:55.708Z,244
2018-09-15T06:16:56.285Z,248
2018-09-15T06:17:56.873Z,248
2018-09-15T06:18:57.454Z,252
2018-09-15T06:19:58.026Z,248
2018-09-15T06:20:58.604Z,256
2018-09-15T06:21:59.181Z,256
2018-09-15T06:22:59.756Z,256
2018-09-15T06:24:00.331Z,256
2018-09-15T06:25:00.908Z,264
2018-09-15T06:26:01.484Z,264
2018-09-15T06:27:02.064Z,248
2018-09-15T06:28:02.638Z,240
2018-09-15T06:29:03.219Z,216
2018-09-15T06:30:03.789Z,220
2018-09-15T06:31:04.441Z,232
2018-09-15T06:32:04.949Z,248
2018-09-15T06:33:05.526Z,256
2018-09-15T06:34:06.106Z,260
2018-09-15T06:35:06.695Z,272
2018-09-15T06:36:07.273Z,268
2018-09-15T06:37:07.849Z,276
2018-09-15T06:38:08.426Z,260
2018-09-15T06:39:09.003Z,248
2018-09-15T06:40:09.582Z,252
2018-09-15T06:41:10.157Z,248
2018-09-15T06:42:10.734Z,244
2018-09-15T06:43:11.312Z,236
2018-09-15T06:44:11.889Z,232
2018-09-15T06:45:12.463Z,236
2018-09-15T06:46:13.042Z,244
2018-09-15T06:47:13.618Z,260
2018-09-15T06:48:14.196Z,236
2018-09-15T06:49:15.537Z,236
2018-09-15T06:50:16.113Z,240
2018-09-15T06:51:16.746Z,240
2018-09-15T06:52:17.270Z,240
2018-09-15T06:53:17.843Z,244
2018-09-15T06:54:18.423Z,240
2018-09-15T06:55:19.013Z,244
2018-09-15T06:56:19.591Z,300
2018-09-15T06:57:20.181Z,296
2018-09-15T06:58:20.757Z,312
2018-09-15T06:59:21.684Z,332
2018-09-15T07:00:22.262Z,332
2018-09-15T07:01:22.840Z,360
2018-09-15T07:02:23.417Z,352
2018-09-15T07:03:23.994Z,348
2018-09-15T07:04:24.570Z,360
2018-09-15T07:05:25.146Z,368
2018-09-15T07:06:25.728Z,372
2018-09-15T07:07:26.299Z,376
2018-09-15T07:08:26.892Z,372
2018-09-15T07:09:27.466Z,372
2018-09-15T07:10:28.044Z,376
2018-09-15T07:11:28.620Z,380
2018-09-15T07:12:29.211Z,392
2018-09-15T07:13:29.802Z,400
2018-09-15T07:14:30.391Z,408
2018-09-15T07:15:30.968Z,408
2018-09-15T07:16:31.545Z,420
2018-09-15T07:17:32.133Z,440
2018-09-15T07:18:32.701Z,436
2018-09-15T07:19:33.276Z,440
2018-09-15T07:20:33.868Z,384
2018-09-15T07:21:34.445Z,420
2018-09-15T07:22:35.027Z,424
2018-09-15T07:23:35.599Z,376
2018-09-15T07:24:36.177Z,392
2018-09-15T07:25:36.755Z,392
2018-09-15T07:26:37.330Z,408
2018-09-15T07:27:37.909Z,408
2018-09-15T07:28:38.487Z,432
2018-09-15T07:29:39.065Z,400
2018-09-15T07:30:39.642Z,392
2018-09-15T07:31:40.246Z,396
2018-09-15T07:32:40.796Z,400
2018-09-15T07:33:41.390Z,392
2018-09-15T07:34:42.025Z,384
2018-09-15T07:35:42.555Z,384
2018-09-15T07:36:43.135Z,392
2018-09-15T07:37:43.788Z,400
2018-09-15T07:38:44.303Z,436
2018-09-15T07:39:44.893Z,476
2018-09-15T07:40:45.472Z,480
2018-09-15T07:41:46.050Z,408
2018-09-15T07:42:46.629Z,456
2018-09-15T07:43:47.209Z,392
2018-09-15T07:44:47.828Z,384
2018-09-15T07:45:48.376Z,380
2018-09-15T07:46:48.954Z,380
2018-09-15T07:47:49.548Z,380
2018-09-15T07:48:50.128Z,388
2018-09-15T07:49:50.720Z,396
2018-09-15T07:50:51.298Z,404
2018-09-15T07:51:51.876Z,408
2018-09-15T07:52:52.454Z,408
2018-09-15T07:53:53.044Z,404
2018-09-15T07:54:53.625Z,408
2018-09-15T07:55:54.201Z,408
2018-09-15T07:56:54.782Z,404
2018-09-15T07:57:55.472Z,408
2018-09-15T07:58:55.938Z,408
2018-09-15T07:59:56.523Z,416
2018-09-15T08:00:57.110Z,420
2018-09-15T08:01:57.717Z,424
2018-09-15T08:02:58.265Z,428
2018-09-15T08:03:58.845Z,432
2018-09-15T08:04:59.423Z,432
2018-09-15T08:05:59.999Z,424
2018-09-15T08:07:00.591Z,420
2018-09-15T08:08:01.170Z,416
2018-09-15T08:09:01.748Z,416
2018-09-15T08:10:02.327Z,416
2018-09-15T08:11:02.941Z,428
2018-09-15T08:12:03.500Z,448
2018-09-15T08:13:04.089Z,456
2018-09-15T08:14:04.667Z,464
2018-09-15T08:15:05.244Z,464
2018-09-15T08:16:05.822Z,464
2018-09-15T08:17:06.398Z,464
2018-09-15T08:18:06.976Z,464
2018-09-15T08:19:07.555Z,456
2018-09-15T08:20:08.130Z,456
2018-09-15T08:21:08.709Z,456
2018-09-15T08:22:09.300Z,452
2018-09-15T08:23:09.878Z,444
2018-09-15T08:24:10.455Z,432
2018-09-15T08:25:11.033Z,428
2018-09-15T08:26:11.620Z,428
2018-09-15T08:27:12.189Z,432
2018-09-15T08:28:12.765Z,436
2018-09-15T08:29:13.343Z,444
2018-09-15T08:30:13.920Z,452
2018-09-15T08:31:14.498Z,440
2018-09-15T08:32:15.076Z,444
2018-09-15T08:33:15.659Z,456
2018-09-15T08:34:16.236Z,476
2018-09-15T08:35:16.812Z,480
2018-09-15T08:36:17.392Z,480
2018-09-15T08:37:17.981Z,484
2018-09-15T08:38:18.546Z,488
2018-09-15T08:39:19.124Z,492
2018-09-15T08:40:19.702Z,500
2018-09-15T08:41:20.342Z,520
2018-09-15T08:42:20.860Z,536
2018-09-15T08:43:21.437Z,536
2018-09-15T08:44:22.015Z,532
2018-09-15T08:45:22.595Z,548
2018-09-15T08:46:23.173Z,564
2018-09-15T08:47:23.752Z,572
2018-09-15T08:48:24.453Z,568
2018-09-15T08:49:24.911Z,568
2018-09-15T08:50:25.489Z,564
2018-09-15T08:51:26.068Z,560
2018-09-15T08:52:26.646Z,556
2018-09-15T08:53:27.226Z,560
2018-09-15T08:54:27.805Z,576
2018-09-15T08:55:28.385Z,580
2018-09-15T08:56:28.962Z,576
2018-09-15T08:57:29.541Z,580
2018-09-15T08:58:30.124Z,580
2018-09-15T08:59:30.714Z,596
2018-09-15T09:00:31.295Z,604
2018-09-15T09:01:31.871Z,624
2018-09-15T09:02:32.451Z,624
2018-09-15T09:03:33.075Z,628
2018-09-15T09:04:33.609Z,624
2018-09-15T09:05:34.189Z,620
2018-09-15T09:06:34.771Z,616
2018-09-15T09:07:35.346Z,596
2018-09-15T09:08:35.925Z,576
2018-09-15T09:09:36.504Z,552
2018-09-15T09:10:37.082Z,540
2018-09-15T09:11:37.662Z,560
2018-09-15T09:12:38.254Z,536
2018-09-15T09:13:38.835Z,556
2018-09-15T09:14:39.414Z,592
2018-09-15T09:15:40.006Z,764
2018-09-15T09:16:40.584Z,628
2018-09-15T09:17:41.168Z,660
2018-09-15T09:18:41.758Z,624
2018-09-15T09:19:42.336Z,616
2018-09-15T09:20:42.915Z,584
2018-09-15T09:21:43.496Z,520
2018-09-15T09:22:44.075Z,604
2018-09-15T09:23:44.654Z,640
2018-09-15T09:24:45.247Z,628
2018-09-15T09:25:45.870Z,604
2018-09-15T09:26:46.518Z,572
2018-09-15T09:27:46.985Z,628
2018-09-15T09:28:47.565Z,528
2018-09-15T09:29:48.143Z,724
2018-09-15T09:30:48.722Z,704
2018-09-15T09:31:49.301Z,564
2018-09-15T09:32:49.881Z,672
2018-09-15T09:33:50.459Z,600
2018-09-15T09:34:51.037Z,772
2018-09-15T09:35:51.618Z,648
2018-09-15T09:36:52.197Z,524
2018-09-15T09:37:52.790Z,496
2018-09-15T09:38:53.369Z,608
2018-09-15T09:39:53.949Z,652
2018-09-15T09:40:54.528Z,660
2018-09-15T09:41:55.107Z,760
2018-09-15T09:42:55.687Z,528
2018-09-15T09:43:56.266Z,768
2018-09-15T09:44:56.846Z,764
2018-09-15T09:45:57.427Z,608
2018-09-15T09:46:58.036Z,564
2018-09-15T09:47:58.702Z,816
2018-09-15T09:48:59.167Z,800
2018-09-15T09:49:59.744Z,640
2018-09-15T09:51:00.424Z,632
2018-09-15T09:52:01.017Z,588
2018-09-15T09:53:01.609Z,528
2018-09-15T09:54:02.204Z,540
2018-09-15T09:55:02.784Z,576
2018-09-15T09:56:03.362Z,552
2018-09-15T09:57:03.941Z,488
2018-09-15T09:58:04.534Z,468
2018-09-15T09:59:05.117Z,484
2018-09-15T10:00:05.707Z,508
2018-09-15T10:01:06.309Z,544
2018-09-15T10:02:06.880Z,588
2018-09-15T10:03:07.516Z,636
2018-09-15T10:04:08.052Z,728
2018-09-15T10:05:08.631Z,816
2018-09-15T10:06:09.210Z,592
2018-09-15T10:07:09.848Z,576
2018-09-15T10:08:10.368Z,580
2018-09-15T10:09:10.947Z,760
2018-09-15T10:10:11.529Z,776
2018-09-15T10:11:12.110Z,652
2018-09-15T10:12:12.701Z,656
2018-09-15T10:13:13.281Z,624
2018-09-15T10:14:13.866Z,624
2018-09-15T10:15:14.456Z,768
2018-09-15T10:16:15.042Z,816
2018-09-15T10:17:15.613Z,768
2018-09-15T10:18:16.194Z,528
2018-09-15T10:19:16.774Z,492
2018-09-15T10:20:17.352Z,484
2018-09-15T10:21:17.947Z,456
2018-09-15T10:22:18.529Z,432
2018-09-15T10:23:19.107Z,420
2018-09-15T10:24:19.688Z,412
2018-09-15T10:25:20.267Z,424
2018-09-15T10:26:20.848Z,440
2018-09-15T10:27:21.428Z,440
2018-09-15T10:28:22.007Z,436
2018-09-15T10:29:22.589Z,436
2018-09-15T10:30:23.183Z,448
2018-09-15T10:31:23.761Z,476
2018-09-15T10:32:24.344Z,528
2018-09-15T10:33:24.931Z,588
2018-09-15T10:34:25.523Z,564
2018-09-15T10:35:26.106Z,540
2018-09-15T10:36:26.696Z,520
2018-09-15T10:37:27.275Z,500
2018-09-15T10:38:27.863Z,492
2018-09-15T10:39:28.433Z,504
2018-09-15T10:40:29.098Z,504
2018-09-15T10:41:29.591Z,504
2018-09-15T10:42:30.173Z,496
2018-09-15T10:43:30.751Z,648
2018-09-15T10:44:31.329Z,700
2018-09-15T10:45:31.915Z,540
2018-09-15T10:46:32.567Z,492
2018-09-15T10:47:33.098Z,468
2018-09-15T10:48:33.677Z,432
2018-09-15T10:49:34.254Z,400
2018-09-15T10:50:34.837Z,380
2018-09-15T10:51:35.415Z,308
2018-09-15T10:52:35.993Z,276
2018-09-15T10:53:36.574Z,280
2018-09-15T10:54:37.154Z,300
2018-09-15T10:55:37.733Z,316
2018-09-15T10:56:38.314Z,324
2018-09-15T10:57:38.894Z,320
2018-09-15T10:58:39.475Z,312
2018-09-15T10:59:40.060Z,332
2018-09-15T11:00:40.703Z,348
2018-09-15T11:01:41.327Z,336
2018-09-15T11:02:41.906Z,312
2018-09-15T11:03:42.485Z,280
2018-09-15T11:04:43.068Z,252
2018-09-15T11:05:43.659Z,236
2018-09-15T11:06:44.225Z,220
2018-09-15T11:07:44.817Z,204
2018-09-15T11:08:45.395Z,192
2018-09-15T11:09:45.974Z,188
2018-09-15T11:10:46.567Z,172
2018-09-15T11:11:47.159Z,152
2018-09-15T11:12:47.738Z,144
2018-09-15T11:13:48.398Z,152
2018-09-15T11:14:48.910Z,160
2018-09-15T11:15:49.487Z,164
2018-09-15T11:16:50.066Z,172
2018-09-15T11:17:50.645Z,180
2018-09-15T11:18:51.222Z,184
2018-09-15T11:19:51.802Z,188
2018-09-15T11:20:52.390Z,188
2018-09-15T11:21:52.968Z,192
2018-09-15T11:22:53.561Z,196
2018-09-15T11:23:54.127Z,200
2018-09-15T11:24:54.704Z,204
2018-09-15T11:25:55.283Z,208
2018-09-15T11:26:55.862Z,208
2018-09-15T11:27:56.454Z,208
2018-09-15T11:28:57.116Z,212
2018-09-15T11:29:57.621Z,216
2018-09-15T11:30:58.198Z,220
2018-09-15T11:31:58.779Z,228
2018-09-15T11:32:59.371Z,240
2018-09-15T11:33:59.982Z,248
2018-09-15T11:35:00.545Z,260
2018-09-15T11:36:01.124Z,272
2018-09-15T11:37:01.715Z,276
2018-09-15T11:38:02.284Z,288
2018-09-15T11:39:02.861Z,296
2018-09-15T11:40:03.442Z,308
2018-09-15T11:41:04.074Z,320
2018-09-15T11:42:04.614Z,340
2018-09-15T11:43:05.192Z,364
2018-09-15T11:44:05.821Z,396
2018-09-15T11:45:06.395Z,432
2018-09-15T11:46:06.975Z,472
2018-09-15T11:47:07.557Z,512
2018-09-15T11:48:08.136Z,528
2018-09-15T11:49:08.715Z,540
2018-09-15T11:50:09.312Z,536
2018-09-15T11:51:09.891Z,532
2018-09-15T11:52:10.485Z,516
2018-09-15T11:53:11.066Z,496
2018-09-15T11:54:11.646Z,480
2018-09-15T11:55:12.276Z,464
2018-09-15T11:56:12.853Z,448
2018-09-15T11:57:13.431Z,424
2018-09-15T11:58:14.010Z,400
2018-09-15T11:59:14.589Z,376
2018-09-15T12:00:15.165Z,352
2018-09-15T12:01:15.753Z,340
2018-09-15T12:02:16.329Z,344
2018-09-15T12:03:16.907Z,344
2018-09-15T12:04:17.483Z,336
2018-09-15T12:05:18.063Z,316
2018-09-15T12:06:18.651Z,296
2018-09-15T12:07:19.227Z,272
2018-09-15T12:08:19.804Z,252
2018-09-15T12:09:20.382Z,240
2018-09-15T12:10:20.960Z,252
2018-09-15T12:11:21.539Z,288
2018-09-15T12:12:22.131Z,328
2018-09-15T12:13:22.709Z,352
2018-09-15T12:14:23.288Z,348
2018-09-15T12:15:23.870Z,352
2018-09-15T12:16:24.450Z,360
2018-09-15T12:17:25.030Z,344
2018-09-15T12:18:25.613Z,304
2018-09-15T12:19:26.205Z,264
2018-09-15T12:20:26.784Z,248
2018-09-15T12:21:27.441Z,232
2018-09-15T12:22:27.951Z,224
2018-09-15T12:23:28.532Z,212
2018-09-15T12:24:29.110Z,196
2018-09-15T12:25:29.689Z,180
2018-09-15T12:26:30.273Z,164
2018-09-15T12:27:30.848Z,160
2018-09-15T12:28:31.431Z,160
2018-09-15T12:29:32.007Z,160
2018-09-15T12:30:32.585Z,164
2018-09-15T12:31:33.165Z,164
2018-09-15T12:32:33.749Z,172
2018-09-15T12:33:34.369Z,172
2018-09-15T12:34:34.905Z,180
2018-09-15T12:35:35.523Z,192
2018-09-15T12:36:36.059Z,212
2018-09-15T12:37:36.638Z,232
2018-09-15T12:38:37.229Z,248
2018-09-15T12:39:37.811Z,272
2018-09-15T12:40:38.390Z,300
2018-09-15T12:41:38.971Z,332
2018-09-15T12:42:39.552Z,364
2018-09-15T12:43:40.130Z,388
2018-09-15T12:44:40.710Z,408
2018-09-15T12:45:41.291Z,436
2018-09-15T12:46:41.871Z,464
2018-09-15T12:47:42.449Z,492
2018-09-15T12:48:43.029Z,516
2018-09-15T12:49:43.615Z,548
2018-09-15T12:50:44.203Z,580
2018-09-15T12:51:44.783Z,728
2018-09-15T12:52:45.376Z,612
2018-09-15T12:53:45.954Z,540
2018-09-15T12:54:46.534Z,552
2018-09-15T12:55:47.114Z,488
2018-09-15T12:56:47.694Z,488
2018-09-15T12:57:48.289Z,472
2018-09-15T12:58:48.876Z,532
2018-09-15T12:59:49.459Z,440
2018-09-15T13:00:50.053Z,424
2018-09-15T13:01:50.636Z,416
2018-09-15T13:02:51.225Z,412
2018-09-15T13:03:51.819Z,408
2018-09-15T13:04:52.405Z,392
2018-09-15T13:05:52.979Z,376
2018-09-15T13:06:53.558Z,376
2018-09-15T13:07:54.152Z,384
2018-09-15T13:08:54.745Z,396
2018-09-15T13:09:55.325Z,412
2018-09-15T13:10:55.909Z,420
2018-09-15T13:11:56.486Z,432
2018-09-15T13:12:57.066Z,436
2018-09-15T13:13:57.647Z,440
2018-09-15T13:14:58.226Z,436
2018-09-15T13:15:58.806Z,440
2018-09-15T13:16:59.386Z,436
2018-09-15T13:17:59.968Z,432
2018-09-15T13:19:00.546Z,416
2018-09-15T13:20:01.126Z,404
2018-09-15T13:21:01.707Z,388
2018-09-15T13:22:02.289Z,376
2018-09-15T13:23:02.881Z,376
2018-09-15T13:24:03.462Z,384
2018-09-15T13:25:04.044Z,396
2018-09-15T13:26:04.622Z,396
2018-09-15T13:27:05.217Z,384
2018-09-15T13:28:05.798Z,364
2018-09-15T13:29:06.377Z,356
2018-09-15T13:30:06.983Z,356
2018-09-15T13:31:07.546Z,364
2018-09-15T13:32:08.125Z,368
2018-09-15T13:33:08.718Z,380
2018-09-15T13:34:09.310Z,396
2018-09-15T13:35:09.891Z,416
2018-09-15T13:36:10.485Z,440
2018-09-15T13:37:11.079Z,468
2018-09-15T13:38:11.658Z,496
2018-09-15T13:39:12.238Z,520
2018-09-15T13:40:12.820Z,552
2018-09-15T13:41:13.401Z,580
2018-09-15T13:42:13.980Z,604
2018-09-15T13:43:14.559Z,632
2018-09-15T13:44:15.138Z,648
2018-09-15T13:45:15.718Z,664
2018-09-15T13:46:16.298Z,668
2018-09-15T13:47:16.877Z,672
2018-09-15T13:48:17.458Z,672
2018-09-15T13:49:18.045Z,680
2018-09-15T13:50:18.625Z,692
2018-09-15T13:51:19.205Z,716
2018-09-15T13:52:19.838Z,724
2018-09-15T13:53:20.385Z,724
2018-09-15T13:54:20.960Z,736
2018-09-15T13:55:21.539Z,768
2018-09-15T13:56:22.120Z,756
2018-09-15T13:57:22.700Z,964
2018-09-15T13:58:23.280Z,988
2018-09-15T13:59:23.860Z,972
2018-09-15T14:00:24.440Z,936
2018-09-15T14:01:25.022Z,936
2018-09-15T14:02:25.602Z,872
2018-09-15T14:03:26.185Z,716
2018-09-15T14:04:26.769Z,680
2018-09-15T14:05:27.344Z,644
2018-09-15T14:06:27.924Z,652
2018-09-15T14:07:28.506Z,648
2018-09-15T14:08:29.086Z,636
2018-09-15T14:09:29.665Z,628
2018-09-15T14:10:30.269Z,584
2018-09-15T14:11:30.844Z,584
2018-09-15T14:12:31.434Z,576
2018-09-15T14:13:32.014Z,572
2018-09-15T14:14:32.607Z,572
2018-09-15T14:15:33.189Z,568